sensor_id;sensor_type;location;lat;lon;timestamp;P1;durP1;ratioP1;P2;durP2;ratioP2
49826;SDS011;35715;51.570;6.036;2023-12-29T00:01:14;12.40;;;3.00;;
49826;SDS011;35715;51.570;6.036;2023-12-29T00:03:39;12.93;;;2.05;;
49826;SDS011;35715;51.570;6.036;2023-12-29T00:06:05;11.50;;;3.22;;
49826;SDS011;35715;51.570;6.036;2023-12-29T00:08:30;7.43;;;2.05;;
49826;SDS011;35715;51.570;6.036;2023-12-29T00:10:56;6.07;;;2.13;;
49826;SDS011;35715;51.570;6.036;2023-12-29T00:13:22;8.38;;;2.33;;
49826;SDS011;35715;51.570;6.036;2023-12-29T00:15:52;11.95;;;3.00;;
49826;SDS011;35715;51.570;6.036;2023-12-29T00:18:18;7.70;;;1.45;;
49826;SDS011;35715;51.570;6.036;2023-12-29T00:20:43;9.18;;;2.22;;
49826;SDS011;35715;51.570;6.036;2023-12-29T00:23:09;9.40;;;2.80;;
49826;SDS011;35715;51.570;6.036;2023-12-29T00:25:36;9.13;;;2.63;;
49826;SDS011;35715;51.570;6.036;2023-12-29T00:28:02;12.57;;;3.65;;
49826;SDS011;35715;51.570;6.036;2023-12-29T00:30:28;6.63;;;2.08;;
49826;SDS011;35715;51.570;6.036;2023-12-29T00:32:54;5.35;;;1.73;;
49826;SDS011;35715;51.570;6.036;2023-12-29T00:35:20;9.88;;;2.95;;
49826;SDS011;35715;51.570;6.036;2023-12-29T00:37:45;8.70;;;2.60;;
49826;SDS011;35715;51.570;6.036;2023-12-29T00:40:11;5.30;;;1.20;;
49826;SDS011;35715;51.570;6.036;2023-12-29T00:42:37;8.93;;;1.92;;
49826;SDS011;35715;51.570;6.036;2023-12-29T00:45:02;8.75;;;1.58;;
49826;SDS011;35715;51.570;6.036;2023-12-29T00:47:28;4.07;;;2.30;;
49826;SDS011;35715;51.570;6.036;2023-12-29T00:49:56;11.48;;;1.73;;
49826;SDS011;35715;51.570;6.036;2023-12-29T00:52:21;6.43;;;2.95;;
49826;SDS011;35715;51.570;6.036;2023-12-29T00:54:47;3.63;;;1.60;;
49826;SDS011;35715;51.570;6.036;2023-12-29T00:57:14;7.72;;;1.58;;
49826;SDS011;35715;51.570;6.036;2023-12-29T00:59:40;6.50;;;1.52;;
49826;SDS011;35715;51.570;6.036;2023-12-29T01:02:06;5.68;;;1.73;;
49826;SDS011;35715;51.570;6.036;2023-12-29T01:04:31;10.45;;;1.92;;
49826;SDS011;35715;51.570;6.036;2023-12-29T01:06:57;5.05;;;2.08;;
49826;SDS011;35715;51.570;6.036;2023-12-29T01:09:22;5.65;;;1.80;;
49826;SDS011;35715;51.570;6.036;2023-12-29T01:11:47;10.73;;;2.67;;
49826;SDS011;35715;51.570;6.036;2023-12-29T01:14:13;7.25;;;2.55;;
49826;SDS011;35715;51.570;6.036;2023-12-29T01:16:39;5.82;;;2.15;;
49826;SDS011;35715;51.570;6.036;2023-12-29T01:19:05;6.55;;;2.65;;
49826;SDS011;35715;51.570;6.036;2023-12-29T01:21:30;14.32;;;2.65;;
49826;SDS011;35715;51.570;6.036;2023-12-29T01:23:59;6.47;;;2.30;;
49826;SDS011;35715;51.570;6.036;2023-12-29T01:26:25;8.07;;;2.95;;
49826;SDS011;35715;51.570;6.036;2023-12-29T01:28:51;6.57;;;1.98;;
49826;SDS011;35715;51.570;6.036;2023-12-29T01:31:16;11.73;;;2.55;;
49826;SDS011;35715;51.570;6.036;2023-12-29T01:33:42;13.35;;;3.13;;
49826;SDS011;35715;51.570;6.036;2023-12-29T01:36:07;10.38;;;2.97;;
49826;SDS011;35715;51.570;6.036;2023-12-29T01:38:32;7.88;;;2.22;;
49826;SDS011;35715;51.570;6.036;2023-12-29T01:40:58;10.18;;;3.25;;
49826;SDS011;35715;51.570;6.036;2023-12-29T01:43:23;9.48;;;2.35;;
49826;SDS011;35715;51.570;6.036;2023-12-29T01:45:49;8.57;;;2.45;;
49826;SDS011;35715;51.570;6.036;2023-12-29T01:48:14;10.18;;;3.53;;
49826;SDS011;35715;51.570;6.036;2023-12-29T01:50:39;11.23;;;2.55;;
49826;SDS011;35715;51.570;6.036;2023-12-29T01:53:05;9.45;;;2.40;;
49826;SDS011;35715;51.570;6.036;2023-12-29T01:55:32;8.35;;;2.35;;
49826;SDS011;35715;51.570;6.036;2023-12-29T01:57:58;7.82;;;2.60;;
49826;SDS011;35715;51.570;6.036;2023-12-29T02:00:24;7.55;;;2.72;;
49826;SDS011;35715;51.570;6.036;2023-12-29T02:02:50;9.80;;;2.63;;
49826;SDS011;35715;51.570;6.036;2023-12-29T02:05:16;12.57;;;3.25;;
49826;SDS011;35715;51.570;6.036;2023-12-29T02:07:42;11.35;;;2.67;;
49826;SDS011;35715;51.570;6.036;2023-12-29T02:10:08;14.88;;;2.70;;
49826;SDS011;35715;51.570;6.036;2023-12-29T02:12:35;8.15;;;3.58;;
49826;SDS011;35715;51.570;6.036;2023-12-29T02:15:04;10.10;;;3.17;;
49826;SDS011;35715;51.570;6.036;2023-12-29T02:17:40;6.78;;;2.05;;
49826;SDS011;35715;51.570;6.036;2023-12-29T02:20:09;10.68;;;2.30;;
49826;SDS011;35715;51.570;6.036;2023-12-29T02:22:36;13.95;;;3.85;;
49826;SDS011;35715;51.570;6.036;2023-12-29T02:25:01;13.82;;;3.42;;
49826;SDS011;35715;51.570;6.036;2023-12-29T02:30:13;15.80;;;3.50;;
49826;SDS011;35715;51.570;6.036;2023-12-29T02:32:49;6.45;;;1.83;;
49826;SDS011;35715;51.570;6.036;2023-12-29T02:37:53;10.27;;;2.70;;
49826;SDS011;35715;51.570;6.036;2023-12-29T02:40:19;12.77;;;2.15;;
49826;SDS011;35715;51.570;6.036;2023-12-29T02:42:48;17.33;;;3.38;;
49826;SDS011;35715;51.570;6.036;2023-12-29T02:45:15;11.07;;;2.78;;
49826;SDS011;35715;51.570;6.036;2023-12-29T02:47:41;14.10;;;2.22;;
49826;SDS011;35715;51.570;6.036;2023-12-29T02:50:07;6.18;;;1.50;;
49826;SDS011;35715;51.570;6.036;2023-12-29T02:52:33;10.50;;;2.85;;
49826;SDS011;35715;51.570;6.036;2023-12-29T02:54:58;8.57;;;2.65;;
49826;SDS011;35715;51.570;6.036;2023-12-29T02:57:23;11.32;;;2.63;;
49826;SDS011;35715;51.570;6.036;2023-12-29T02:59:49;11.13;;;3.08;;
49826;SDS011;35715;51.570;6.036;2023-12-29T03:02:14;9.13;;;1.80;;
49826;SDS011;35715;51.570;6.036;2023-12-29T03:04:39;13.93;;;2.47;;
49826;SDS011;35715;51.570;6.036;2023-12-29T03:07:05;9.13;;;2.70;;
49826;SDS011;35715;51.570;6.036;2023-12-29T03:09:31;9.30;;;3.17;;
49826;SDS011;35715;51.570;6.036;2023-12-29T03:11:57;8.77;;;2.72;;
49826;SDS011;35715;51.570;6.036;2023-12-29T03:14:22;4.75;;;1.83;;
49826;SDS011;35715;51.570;6.036;2023-12-29T03:16:47;12.95;;;3.75;;
49826;SDS011;35715;51.570;6.036;2023-12-29T03:19:13;13.20;;;3.15;;
49826;SDS011;35715;51.570;6.036;2023-12-29T03:21:38;9.15;;;3.33;;
49826;SDS011;35715;51.570;6.036;2023-12-29T03:24:03;9.93;;;2.35;;
49826;SDS011;35715;51.570;6.036;2023-12-29T03:26:29;15.18;;;2.72;;
49826;SDS011;35715;51.570;6.036;2023-12-29T03:28:54;8.60;;;2.42;;
49826;SDS011;35715;51.570;6.036;2023-12-29T03:31:22;7.97;;;2.38;;
49826;SDS011;35715;51.570;6.036;2023-12-29T03:33:47;12.07;;;3.20;;
49826;SDS011;35715;51.570;6.036;2023-12-29T03:36:13;9.10;;;2.10;;
49826;SDS011;35715;51.570;6.036;2023-12-29T03:38:38;16.58;;;3.33;;
49826;SDS011;35715;51.570;6.036;2023-12-29T03:41:04;9.63;;;3.00;;
49826;SDS011;35715;51.570;6.036;2023-12-29T03:43:29;23.33;;;3.28;;
49826;SDS011;35715;51.570;6.036;2023-12-29T03:45:54;11.75;;;2.80;;
49826;SDS011;35715;51.570;6.036;2023-12-29T03:50:55;3.95;;;1.65;;
49826;SDS011;35715;51.570;6.036;2023-12-29T03:53:20;11.73;;;2.40;;
49826;SDS011;35715;51.570;6.036;2023-12-29T03:58:17;9.13;;;2.40;;
49826;SDS011;35715;51.570;6.036;2023-12-29T04:00:43;10.90;;;2.40;;
49826;SDS011;35715;51.570;6.036;2023-12-29T04:03:11;7.55;;;2.17;;
49826;SDS011;35715;51.570;6.036;2023-12-29T04:05:36;6.82;;;2.17;;
49826;SDS011;35715;51.570;6.036;2023-12-29T04:08:02;6.65;;;1.80;;
49826;SDS011;35715;51.570;6.036;2023-12-29T04:10:27;4.78;;;1.80;;
49826;SDS011;35715;51.570;6.036;2023-12-29T04:12:52;8.55;;;2.53;;
49826;SDS011;35715;51.570;6.036;2023-12-29T04:15:18;14.68;;;3.20;;
49826;SDS011;35715;51.570;6.036;2023-12-29T04:17:43;10.15;;;2.22;;
49826;SDS011;35715;51.570;6.036;2023-12-29T04:20:09;9.43;;;2.65;;
49826;SDS011;35715;51.570;6.036;2023-12-29T04:22:37;10.18;;;1.98;;
49826;SDS011;35715;51.570;6.036;2023-12-29T04:25:02;6.55;;;2.00;;
49826;SDS011;35715;51.570;6.036;2023-12-29T04:27:28;7.18;;;2.25;;
49826;SDS011;35715;51.570;6.036;2023-12-29T04:29:53;9.27;;;3.00;;
49826;SDS011;35715;51.570;6.036;2023-12-29T04:32:18;7.63;;;2.08;;
49826;SDS011;35715;51.570;6.036;2023-12-29T04:34:44;8.00;;;3.38;;
49826;SDS011;35715;51.570;6.036;2023-12-29T04:37:09;12.50;;;3.33;;
49826;SDS011;35715;51.570;6.036;2023-12-29T04:39:34;13.13;;;1.83;;
49826;SDS011;35715;51.570;6.036;2023-12-29T04:42:00;10.48;;;2.00;;
49826;SDS011;35715;51.570;6.036;2023-12-29T04:44:25;12.23;;;3.17;;
49826;SDS011;35715;51.570;6.036;2023-12-29T04:46:50;12.95;;;2.03;;
49826;SDS011;35715;51.570;6.036;2023-12-29T04:49:16;6.25;;;1.92;;
49826;SDS011;35715;51.570;6.036;2023-12-29T04:51:41;10.38;;;2.92;;
49826;SDS011;35715;51.570;6.036;2023-12-29T04:54:06;9.95;;;2.90;;
49826;SDS011;35715;51.570;6.036;2023-12-29T04:56:32;15.90;;;2.45;;
49826;SDS011;35715;51.570;6.036;2023-12-29T04:58:57;6.60;;;2.13;;
49826;SDS011;35715;51.570;6.036;2023-12-29T05:01:28;8.07;;;3.35;;
49826;SDS011;35715;51.570;6.036;2023-12-29T05:03:54;14.45;;;2.38;;
49826;SDS011;35715;51.570;6.036;2023-12-29T05:06:19;10.02;;;2.92;;
49826;SDS011;35715;51.570;6.036;2023-12-29T05:08:44;9.45;;;2.40;;
49826;SDS011;35715;51.570;6.036;2023-12-29T05:11:10;10.55;;;2.67;;
49826;SDS011;35715;51.570;6.036;2023-12-29T05:13:35;22.48;;;5.00;;
49826;SDS011;35715;51.570;6.036;2023-12-29T05:16:00;14.93;;;3.53;;
49826;SDS011;35715;51.570;6.036;2023-12-29T05:18:28;6.97;;;1.90;;
49826;SDS011;35715;51.570;6.036;2023-12-29T05:20:54;11.77;;;3.75;;
49826;SDS011;35715;51.570;6.036;2023-12-29T05:23:20;13.65;;;2.35;;
49826;SDS011;35715;51.570;6.036;2023-12-29T05:25:45;9.73;;;2.45;;
49826;SDS011;35715;51.570;6.036;2023-12-29T05:28:11;10.35;;;2.97;;
49826;SDS011;35715;51.570;6.036;2023-12-29T05:30:36;10.55;;;2.75;;
49826;SDS011;35715;51.570;6.036;2023-12-29T05:33:02;11.85;;;2.15;;
49826;SDS011;35715;51.570;6.036;2023-12-29T05:35:27;8.93;;;1.85;;
49826;SDS011;35715;51.570;6.036;2023-12-29T05:37:53;6.80;;;2.25;;
49826;SDS011;35715;51.570;6.036;2023-12-29T05:40:18;9.48;;;2.30;;
49826;SDS011;35715;51.570;6.036;2023-12-29T05:42:44;13.93;;;4.03;;
49826;SDS011;35715;51.570;6.036;2023-12-29T05:45:09;11.05;;;2.78;;
49826;SDS011;35715;51.570;6.036;2023-12-29T05:47:35;3.67;;;1.77;;
49826;SDS011;35715;51.570;6.036;2023-12-29T05:50:00;13.65;;;3.15;;
49826;SDS011;35715;51.570;6.036;2023-12-29T05:52:25;8.68;;;2.15;;
49826;SDS011;35715;51.570;6.036;2023-12-29T05:54:51;8.48;;;2.25;;
49826;SDS011;35715;51.570;6.036;2023-12-29T05:57:19;8.73;;;2.58;;
49826;SDS011;35715;51.570;6.036;2023-12-29T05:59:44;6.90;;;1.92;;
49826;SDS011;35715;51.570;6.036;2023-12-29T06:02:10;10.85;;;2.42;;
49826;SDS011;35715;51.570;6.036;2023-12-29T06:04:35;6.22;;;1.95;;
49826;SDS011;35715;51.570;6.036;2023-12-29T06:07:01;7.30;;;2.17;;
49826;SDS011;35715;51.570;6.036;2023-12-29T06:09:26;11.70;;;3.28;;
49826;SDS011;35715;51.570;6.036;2023-12-29T06:11:52;11.95;;;2.75;;
49826;SDS011;35715;51.570;6.036;2023-12-29T06:14:17;13.07;;;3.30;;
49826;SDS011;35715;51.570;6.036;2023-12-29T06:16:43;12.25;;;3.45;;
49826;SDS011;35715;51.570;6.036;2023-12-29T06:19:08;6.38;;;1.58;;
49826;SDS011;35715;51.570;6.036;2023-12-29T06:21:40;9.93;;;2.95;;
49826;SDS011;35715;51.570;6.036;2023-12-29T06:24:08;10.75;;;2.80;;
49826;SDS011;35715;51.570;6.036;2023-12-29T06:26:34;12.10;;;3.97;;
49826;SDS011;35715;51.570;6.036;2023-12-29T06:29:00;7.72;;;2.03;;
49826;SDS011;35715;51.570;6.036;2023-12-29T06:31:25;11.55;;;3.88;;
49826;SDS011;35715;51.570;6.036;2023-12-29T06:33:51;8.32;;;2.35;;
49826;SDS011;35715;51.570;6.036;2023-12-29T06:36:16;5.30;;;1.85;;
49826;SDS011;35715;51.570;6.036;2023-12-29T06:38:42;10.25;;;2.53;;
49826;SDS011;35715;51.570;6.036;2023-12-29T06:41:11;13.27;;;3.65;;
49826;SDS011;35715;51.570;6.036;2023-12-29T06:43:37;12.73;;;2.60;;
49826;SDS011;35715;51.570;6.036;2023-12-29T06:46:03;6.25;;;1.77;;
49826;SDS011;35715;51.570;6.036;2023-12-29T06:48:29;4.45;;;2.53;;
49826;SDS011;35715;51.570;6.036;2023-12-29T06:50:54;15.93;;;3.13;;
49826;SDS011;35715;51.570;6.036;2023-12-29T06:53:20;8.13;;;3.00;;
49826;SDS011;35715;51.570;6.036;2023-12-29T06:55:45;5.65;;;1.35;;
49826;SDS011;35715;51.570;6.036;2023-12-29T06:58:14;13.00;;;3.05;;
49826;SDS011;35715;51.570;6.036;2023-12-29T07:00:42;18.63;;;3.88;;
49826;SDS011;35715;51.570;6.036;2023-12-29T07:03:13;5.50;;;2.03;;
49826;SDS011;35715;51.570;6.036;2023-12-29T07:05:39;6.18;;;2.40;;
49826;SDS011;35715;51.570;6.036;2023-12-29T07:08:05;6.00;;;1.83;;
49826;SDS011;35715;51.570;6.036;2023-12-29T07:10:30;10.52;;;2.92;;
49826;SDS011;35715;51.570;6.036;2023-12-29T07:12:56;10.80;;;2.38;;
49826;SDS011;35715;51.570;6.036;2023-12-29T07:15:22;7.90;;;2.55;;
49826;SDS011;35715;51.570;6.036;2023-12-29T07:17:47;7.15;;;2.60;;
49826;SDS011;35715;51.570;6.036;2023-12-29T07:20:13;10.38;;;1.85;;
49826;SDS011;35715;51.570;6.036;2023-12-29T07:22:38;10.75;;;2.30;;
49826;SDS011;35715;51.570;6.036;2023-12-29T07:25:04;10.27;;;2.83;;
49826;SDS011;35715;51.570;6.036;2023-12-29T07:27:29;9.13;;;2.03;;
49826;SDS011;35715;51.570;6.036;2023-12-29T07:29:55;5.93;;;2.08;;
49826;SDS011;35715;51.570;6.036;2023-12-29T07:32:20;13.85;;;2.30;;
49826;SDS011;35715;51.570;6.036;2023-12-29T07:34:46;10.43;;;2.78;;
49826;SDS011;35715;51.570;6.036;2023-12-29T07:37:11;6.30;;;2.08;;
49826;SDS011;35715;51.570;6.036;2023-12-29T07:39:37;9.85;;;2.35;;
49826;SDS011;35715;51.570;6.036;2023-12-29T07:42:03;9.02;;;2.15;;
49826;SDS011;35715;51.570;6.036;2023-12-29T07:44:28;6.80;;;2.38;;
49826;SDS011;35715;51.570;6.036;2023-12-29T07:46:56;6.10;;;2.25;;
49826;SDS011;35715;51.570;6.036;2023-12-29T07:49:22;10.68;;;2.35;;
49826;SDS011;35715;51.570;6.036;2023-12-29T07:51:47;8.38;;;2.50;;
49826;SDS011;35715;51.570;6.036;2023-12-29T07:54:13;14.02;;;3.42;;
49826;SDS011;35715;51.570;6.036;2023-12-29T07:56:38;6.80;;;2.03;;
49826;SDS011;35715;51.570;6.036;2023-12-29T07:59:04;9.38;;;1.73;;
49826;SDS011;35715;51.570;6.036;2023-12-29T08:01:29;7.65;;;1.58;;
49826;SDS011;35715;51.570;6.036;2023-12-29T08:03:55;10.93;;;2.42;;
49826;SDS011;35715;51.570;6.036;2023-12-29T08:06:20;10.45;;;2.85;;
49826;SDS011;35715;51.570;6.036;2023-12-29T08:08:46;6.72;;;1.92;;
49826;SDS011;35715;51.570;6.036;2023-12-29T08:11:15;8.35;;;2.13;;
49826;SDS011;35715;51.570;6.036;2023-12-29T08:13:42;9.32;;;2.30;;
49826;SDS011;35715;51.570;6.036;2023-12-29T08:16:09;8.75;;;2.88;;
49826;SDS011;35715;51.570;6.036;2023-12-29T08:18:34;11.60;;;3.05;;
49826;SDS011;35715;51.570;6.036;2023-12-29T08:21:00;9.43;;;2.17;;
49826;SDS011;35715;51.570;6.036;2023-12-29T08:23:25;12.43;;;2.10;;
49826;SDS011;35715;51.570;6.036;2023-12-29T08:25:52;7.20;;;1.30;;
49826;SDS011;35715;51.570;6.036;2023-12-29T08:28:17;4.93;;;1.55;;
49826;SDS011;35715;51.570;6.036;2023-12-29T08:30:45;8.30;;;1.85;;
49826;SDS011;35715;51.570;6.036;2023-12-29T08:33:11;4.03;;;1.58;;
49826;SDS011;35715;51.570;6.036;2023-12-29T08:35:41;5.13;;;1.88;;
49826;SDS011;35715;51.570;6.036;2023-12-29T08:38:07;7.53;;;1.63;;
49826;SDS011;35715;51.570;6.036;2023-12-29T08:40:32;3.75;;;1.50;;
49826;SDS011;35715;51.570;6.036;2023-12-29T08:42:57;7.93;;;1.48;;
49826;SDS011;35715;51.570;6.036;2023-12-29T08:45:23;9.43;;;1.63;;
49826;SDS011;35715;51.570;6.036;2023-12-29T08:47:49;13.00;;;2.20;;
49826;SDS011;35715;51.570;6.036;2023-12-29T08:50:14;3.88;;;0.73;;
49826;SDS011;35715;51.570;6.036;2023-12-29T08:52:40;5.65;;;1.98;;
49826;SDS011;35715;51.570;6.036;2023-12-29T08:55:06;9.30;;;1.60;;
49826;SDS011;35715;51.570;6.036;2023-12-29T08:57:31;8.02;;;1.30;;
49826;SDS011;35715;51.570;6.036;2023-12-29T08:59:56;5.70;;;0.90;;
49826;SDS011;35715;51.570;6.036;2023-12-29T09:02:22;4.20;;;1.42;;
49826;SDS011;35715;51.570;6.036;2023-12-29T09:04:47;5.68;;;2.40;;
49826;SDS011;35715;51.570;6.036;2023-12-29T09:07:13;4.18;;;2.15;;
49826;SDS011;35715;51.570;6.036;2023-12-29T09:09:38;5.03;;;2.17;;
49826;SDS011;35715;51.570;6.036;2023-12-29T09:12:16;3.05;;;1.88;;
49826;SDS011;35715;51.570;6.036;2023-12-29T09:14:41;8.07;;;1.83;;
49826;SDS011;35715;51.570;6.036;2023-12-29T09:17:07;4.10;;;1.00;;
49826;SDS011;35715;51.570;6.036;2023-12-29T09:19:32;9.15;;;2.47;;
49826;SDS011;35715;51.570;6.036;2023-12-29T09:21:57;3.10;;;2.08;;
49826;SDS011;35715;51.570;6.036;2023-12-29T09:24:23;6.40;;;2.05;;
49826;SDS011;35715;51.570;6.036;2023-12-29T09:26:48;4.88;;;1.30;;
49826;SDS011;35715;51.570;6.036;2023-12-29T09:29:13;1.65;;;0.75;;
49826;SDS011;35715;51.570;6.036;2023-12-29T09:31:39;4.28;;;2.28;;
49826;SDS011;35715;51.570;6.036;2023-12-29T09:34:04;6.65;;;1.48;;
49826;SDS011;35715;51.570;6.036;2023-12-29T09:36:30;3.88;;;0.98;;
49826;SDS011;35715;51.570;6.036;2023-12-29T09:38:55;3.88;;;2.20;;
49826;SDS011;35715;51.570;6.036;2023-12-29T09:41:20;3.00;;;1.15;;
49826;SDS011;35715;51.570;6.036;2023-12-29T09:43:49;2.20;;;0.88;;
49826;SDS011;35715;51.570;6.036;2023-12-29T09:46:19;3.70;;;1.48;;
49826;SDS011;35715;51.570;6.036;2023-12-29T09:48:47;2.60;;;0.77;;
49826;SDS011;35715;51.570;6.036;2023-12-29T09:51:13;5.72;;;1.23;;
49826;SDS011;35715;51.570;6.036;2023-12-29T09:53:41;3.45;;;1.05;;
49826;SDS011;35715;51.570;6.036;2023-12-29T09:56:07;1.83;;;0.57;;
49826;SDS011;35715;51.570;6.036;2023-12-29T09:58:33;4.05;;;0.93;;
49826;SDS011;35715;51.570;6.036;2023-12-29T10:01:02;4.60;;;0.82;;
49826;SDS011;35715;51.570;6.036;2023-12-29T10:03:29;3.17;;;0.65;;
49826;SDS011;35715;51.570;6.036;2023-12-29T10:05:55;2.13;;;0.88;;
49826;SDS011;35715;51.570;6.036;2023-12-29T10:08:24;2.08;;;1.13;;
49826;SDS011;35715;51.570;6.036;2023-12-29T10:10:52;2.42;;;0.95;;
49826;SDS011;35715;51.570;6.036;2023-12-29T10:13:19;3.15;;;0.90;;
49826;SDS011;35715;51.570;6.036;2023-12-29T10:18:37;1.65;;;0.95;;
49826;SDS011;35715;51.570;6.036;2023-12-29T10:21:28;2.40;;;0.90;;
49826;SDS011;35715;51.570;6.036;2023-12-29T10:26:41;1.25;;;0.60;;
49826;SDS011;35715;51.570;6.036;2023-12-29T10:29:08;0.98;;;0.60;;
49826;SDS011;35715;51.570;6.036;2023-12-29T10:31:35;2.10;;;0.98;;
49826;SDS011;35715;51.570;6.036;2023-12-29T10:34:16;2.35;;;0.30;;
49826;SDS011;35715;51.570;6.036;2023-12-29T10:36:46;3.63;;;1.33;;
49826;SDS011;35715;51.570;6.036;2023-12-29T10:39:14;1.20;;;0.30;;
49826;SDS011;35715;51.570;6.036;2023-12-29T10:41:40;2.90;;;0.85;;
49826;SDS011;35715;51.570;6.036;2023-12-29T10:44:08;4.22;;;1.02;;
49826;SDS011;35715;51.570;6.036;2023-12-29T10:46:33;1.33;;;1.08;;
49826;SDS011;35715;51.570;6.036;2023-12-29T10:49:08;6.15;;;2.08;;
49826;SDS011;35715;51.570;6.036;2023-12-29T10:51:35;1.77;;;0.93;;
49826;SDS011;35715;51.570;6.036;2023-12-29T10:54:00;19.80;;;2.15;;
49826;SDS011;35715;51.570;6.036;2023-12-29T10:56:26;2.85;;;1.48;;
49826;SDS011;35715;51.570;6.036;2023-12-29T10:59:04;2.88;;;0.85;;
49826;SDS011;35715;51.570;6.036;2023-12-29T11:01:33;2.85;;;1.15;;
49826;SDS011;35715;51.570;6.036;2023-12-29T11:04:01;1.73;;;0.70;;
49826;SDS011;35715;51.570;6.036;2023-12-29T11:06:28;4.13;;;1.38;;
49826;SDS011;35715;51.570;6.036;2023-12-29T11:08:54;1.10;;;0.80;;
49826;SDS011;35715;51.570;6.036;2023-12-29T11:11:19;4.38;;;1.10;;
49826;SDS011;35715;51.570;6.036;2023-12-29T11:13:46;1.65;;;0.80;;
49826;SDS011;35715;51.570;6.036;2023-12-29T11:16:12;4.63;;;1.05;;
49826;SDS011;35715;51.570;6.036;2023-12-29T11:18:38;3.45;;;1.33;;
49826;SDS011;35715;51.570;6.036;2023-12-29T11:21:05;3.40;;;0.70;;
49826;SDS011;35715;51.570;6.036;2023-12-29T11:23:33;2.13;;;1.35;;
49826;SDS011;35715;51.570;6.036;2023-12-29T11:25:58;3.53;;;1.15;;
49826;SDS011;35715;51.570;6.036;2023-12-29T11:28:24;4.03;;;0.85;;
49826;SDS011;35715;51.570;6.036;2023-12-29T11:30:56;7.18;;;1.60;;
49826;SDS011;35715;51.570;6.036;2023-12-29T11:33:22;6.45;;;0.95;;
49826;SDS011;35715;51.570;6.036;2023-12-29T11:35:55;8.43;;;1.15;;
49826;SDS011;35715;51.570;6.036;2023-12-29T11:43:59;7.05;;;1.25;;
49826;SDS011;35715;51.570;6.036;2023-12-29T11:46:35;13.50;;;2.17;;
49826;SDS011;35715;51.570;6.036;2023-12-29T11:49:02;3.65;;;1.23;;
49826;SDS011;35715;51.570;6.036;2023-12-29T11:54:06;4.28;;;1.40;;
49826;SDS011;35715;51.570;6.036;2023-12-29T12:01:50;5.75;;;0.98;;
49826;SDS011;35715;51.570;6.036;2023-12-29T12:04:36;2.50;;;0.90;;
49826;SDS011;35715;51.570;6.036;2023-12-29T12:07:05;7.35;;;1.88;;
49826;SDS011;35715;51.570;6.036;2023-12-29T12:09:31;2.10;;;0.95;;
49826;SDS011;35715;51.570;6.036;2023-12-29T12:11:59;5.10;;;1.45;;
49826;SDS011;35715;51.570;6.036;2023-12-29T12:14:45;5.20;;;1.48;;
49826;SDS011;35715;51.570;6.036;2023-12-29T12:17:26;3.25;;;1.10;;
49826;SDS011;35715;51.570;6.036;2023-12-29T12:19:55;6.63;;;1.13;;
49826;SDS011;35715;51.570;6.036;2023-12-29T12:22:23;2.22;;;0.75;;
49826;SDS011;35715;51.570;6.036;2023-12-29T12:24:50;3.28;;;1.60;;
49826;SDS011;35715;51.570;6.036;2023-12-29T12:27:21;4.90;;;1.00;;
49826;SDS011;35715;51.570;6.036;2023-12-29T12:29:51;1.45;;;0.75;;
49826;SDS011;35715;51.570;6.036;2023-12-29T12:32:22;4.97;;;1.15;;
49826;SDS011;35715;51.570;6.036;2023-12-29T12:34:47;3.00;;;0.73;;
49826;SDS011;35715;51.570;6.036;2023-12-29T12:37:12;4.93;;;0.65;;
49826;SDS011;35715;51.570;6.036;2023-12-29T12:39:43;3.30;;;0.40;;
49826;SDS011;35715;51.570;6.036;2023-12-29T12:42:09;1.65;;;0.80;;
49826;SDS011;35715;51.570;6.036;2023-12-29T12:44:34;2.38;;;0.52;;
49826;SDS011;35715;51.570;6.036;2023-12-29T12:47:06;5.57;;;1.10;;
49826;SDS011;35715;51.570;6.036;2023-12-29T12:49:33;4.40;;;0.50;;
49826;SDS011;35715;51.570;6.036;2023-12-29T12:51:59;2.38;;;0.40;;
49826;SDS011;35715;51.570;6.036;2023-12-29T12:54:24;2.85;;;0.75;;
49826;SDS011;35715;51.570;6.036;2023-12-29T12:56:50;3.65;;;0.32;;
49826;SDS011;35715;51.570;6.036;2023-12-29T12:59:16;2.55;;;0.88;;
49826;SDS011;35715;51.570;6.036;2023-12-29T13:01:41;0.80;;;0.47;;
49826;SDS011;35715;51.570;6.036;2023-12-29T13:04:07;1.15;;;0.93;;
49826;SDS011;35715;51.570;6.036;2023-12-29T13:06:34;0.80;;;0.40;;
49826;SDS011;35715;51.570;6.036;2023-12-29T13:09:06;11.77;;;1.50;;
49826;SDS011;35715;51.570;6.036;2023-12-29T13:11:36;2.75;;;0.40;;
49826;SDS011;35715;51.570;6.036;2023-12-29T13:14:02;1.48;;;0.43;;
49826;SDS011;35715;51.570;6.036;2023-12-29T13:16:36;3.90;;;0.90;;
49826;SDS011;35715;51.570;6.036;2023-12-29T13:19:15;7.03;;;1.35;;
49826;SDS011;35715;51.570;6.036;2023-12-29T13:21:50;4.40;;;1.45;;
49826;SDS011;35715;51.570;6.036;2023-12-29T13:24:18;0.80;;;0.60;;
49826;SDS011;35715;51.570;6.036;2023-12-29T13:26:45;3.80;;;1.48;;
49826;SDS011;35715;51.570;6.036;2023-12-29T13:29:13;3.55;;;0.60;;
49826;SDS011;35715;51.570;6.036;2023-12-29T13:31:39;4.13;;;0.52;;
49826;SDS011;35715;51.570;6.036;2023-12-29T13:34:06;0.90;;;0.57;;
49826;SDS011;35715;51.570;6.036;2023-12-29T13:36:42;2.65;;;0.60;;
49826;SDS011;35715;51.570;6.036;2023-12-29T13:42:15;1.15;;;0.60;;
49826;SDS011;35715;51.570;6.036;2023-12-29T13:44:42;5.50;;;0.98;;
49826;SDS011;35715;51.570;6.036;2023-12-29T13:47:09;2.17;;;0.63;;
49826;SDS011;35715;51.570;6.036;2023-12-29T13:49:36;1.55;;;0.50;;
49826;SDS011;35715;51.570;6.036;2023-12-29T13:52:03;1.75;;;0.55;;
49826;SDS011;35715;51.570;6.036;2023-12-29T13:54:29;1.13;;;0.90;;
49826;SDS011;35715;51.570;6.036;2023-12-29T13:56:54;1.23;;;0.80;;
49826;SDS011;35715;51.570;6.036;2023-12-29T13:59:35;1.63;;;0.75;;
49826;SDS011;35715;51.570;6.036;2023-12-29T14:04:44;2.90;;;1.13;;
49826;SDS011;35715;51.570;6.036;2023-12-29T14:07:10;2.22;;;1.33;;
49826;SDS011;35715;51.570;6.036;2023-12-29T14:09:36;1.25;;;1.10;;
49826;SDS011;35715;51.570;6.036;2023-12-29T14:12:02;1.98;;;1.70;;
49826;SDS011;35715;51.570;6.036;2023-12-29T14:14:27;4.63;;;1.63;;
49826;SDS011;35715;51.570;6.036;2023-12-29T14:16:53;7.63;;;1.95;;
49826;SDS011;35715;51.570;6.036;2023-12-29T14:19:19;2.88;;;1.42;;
49826;SDS011;35715;51.570;6.036;2023-12-29T14:21:44;10.75;;;3.22;;
49826;SDS011;35715;51.570;6.036;2023-12-29T14:26:41;8.05;;;2.40;;
49826;SDS011;35715;51.570;6.036;2023-12-29T14:29:19;7.05;;;1.95;;
49826;SDS011;35715;51.570;6.036;2023-12-29T14:31:48;3.65;;;1.38;;
49826;SDS011;35715;51.570;6.036;2023-12-29T14:36:44;2.97;;;1.23;;
49826;SDS011;35715;51.570;6.036;2023-12-29T14:39:12;7.15;;;1.92;;
49826;SDS011;35715;51.570;6.036;2023-12-29T14:41:38;2.58;;;0.80;;
49826;SDS011;35715;51.570;6.036;2023-12-29T14:44:03;8.30;;;1.90;;
49826;SDS011;35715;51.570;6.036;2023-12-29T14:46:29;5.10;;;0.95;;
49826;SDS011;35715;51.570;6.036;2023-12-29T14:48:56;1.65;;;0.85;;
49826;SDS011;35715;51.570;6.036;2023-12-29T14:51:22;3.25;;;0.85;;
49826;SDS011;35715;51.570;6.036;2023-12-29T14:53:48;1.50;;;1.13;;
49826;SDS011;35715;51.570;6.036;2023-12-29T14:56:14;3.03;;;1.05;;
49826;SDS011;35715;51.570;6.036;2023-12-29T14:58:41;4.07;;;0.90;;
49826;SDS011;35715;51.570;6.036;2023-12-29T15:01:06;3.80;;;0.77;;
49826;SDS011;35715;51.570;6.036;2023-12-29T15:03:32;2.42;;;0.57;;
49826;SDS011;35715;51.570;6.036;2023-12-29T15:05:58;2.03;;;0.95;;
49826;SDS011;35715;51.570;6.036;2023-12-29T15:08:24;3.20;;;0.95;;
49826;SDS011;35715;51.570;6.036;2023-12-29T15:10:50;2.35;;;1.10;;
49826;SDS011;35715;51.570;6.036;2023-12-29T15:13:16;2.97;;;0.88;;
49826;SDS011;35715;51.570;6.036;2023-12-29T15:15:42;3.15;;;0.90;;
49826;SDS011;35715;51.570;6.036;2023-12-29T15:18:07;1.85;;;0.60;;
49826;SDS011;35715;51.570;6.036;2023-12-29T15:20:33;5.03;;;0.93;;